sensor_id;sensor_type;location;lat;lon;timestamp;P1;P2;P0
62599;PMS7003;48671;48.922;2.346;2023-04-05T00:01:11;254.67;254.67;203.67
62599;PMS7003;48671;48.922;2.346;2023-04-05T00:03:37;285.50;283.75;211.75
62599;PMS7003;48671;48.922;2.346;2023-04-05T00:06:04;247.00;243.75;200.25
62599;PMS7003;48671;48.922;2.346;2023-04-05T00:08:29;255.75;253.00;199.25
62599;PMS7003;48671;48.922;2.346;2023-04-05T00:10:55;247.50;245.75;193.25
62599;PMS7003;48671;48.922;2.346;2023-04-05T00:13:20;256.67;255.67;198.33
62599;PMS7003;48671;48.922;2.346;2023-04-05T00:15:46;260.50;257.25;201.75
62599;PMS7003;48671;48.922;2.346;2023-04-05T00:18:12;263.25;258.75;200.50
62599;PMS7003;48671;48.922;2.346;2023-04-05T00:20:46;262.25;261.00;202.75
62599;PMS7003;48671;48.922;2.346;2023-04-05T00:23:12;251.75;247.50;197.25
62599;PMS7003;48671;48.922;2.346;2023-04-05T00:25:38;246.50;245.00;198.00
62599;PMS7003;48671;48.922;2.346;2023-04-05T00:28:03;238.00;232.00;193.50
62599;PMS7003;48671;48.922;2.346;2023-04-05T00:30:29;242.75;241.75;199.75
62599;PMS7003;48671;48.922;2.346;2023-04-05T00:32:54;242.00;238.00;193.25
62599;PMS7003;48671;48.922;2.346;2023-04-05T00:35:19;231.00;226.50;189.75
62599;PMS7003;48671;48.922;2.346;2023-04-05T00:37:45;233.00;229.75;190.25
62599;PMS7003;48671;48.922;2.346;2023-04-05T00:40:10;237.75;236.25;191.50
62599;PMS7003;48671;48.922;2.346;2023-04-05T00:42:35;241.00;236.25;192.25
62599;PMS7003;48671;48.922;2.346;2023-04-05T00:45:01;253.75;250.25;206.25
62599;PMS7003;48671;48.922;2.346;2023-04-05T00:47:27;255.00;250.75;198.50
62599;PMS7003;48671;48.922;2.346;2023-04-05T00:49:52;220.25;219.25;186.25
62599;PMS7003;48671;48.922;2.346;2023-04-05T00:52:18;239.75;239.00;191.75
62599;PMS7003;48671;48.922;2.346;2023-04-05T00:54:47;227.25;226.00;186.25
62599;PMS7003;48671;48.922;2.346;2023-04-05T00:57:13;228.50;224.25;186.25
62599;PMS7003;48671;48.922;2.346;2023-04-05T00:59:40;236.00;227.25;180.50
62599;PMS7003;48671;48.922;2.346;2023-04-05T01:02:14;223.25;220.50;178.25
62599;PMS7003;48671;48.922;2.346;2023-04-05T01:04:46;214.50;212.50;177.25
62599;PMS7003;48671;48.922;2.346;2023-04-05T01:10:12;196.25;194.25;164.50
62599;PMS7003;48671;48.922;2.346;2023-04-05T01:12:38;214.75;210.25;173.00
62599;PMS7003;48671;48.922;2.346;2023-04-05T01:15:04;201.00;197.75;164.75
62599;PMS7003;48671;48.922;2.346;2023-04-05T01:17:31;208.25;205.75;169.00
62599;PMS7003;48671;48.922;2.346;2023-04-05T01:20:07;208.50;202.25;169.00
62599;PMS7003;48671;48.922;2.346;2023-04-05T01:25:24;209.50;207.00;167.25
62599;PMS7003;48671;48.922;2.346;2023-04-05T01:33:43;178.50;175.75;151.50
62599;PMS7003;48671;48.922;2.346;2023-04-05T01:36:26;194.50;192.50;161.25
62599;PMS7003;48671;48.922;2.346;2023-04-05T01:38:58;198.75;198.75;162.75
62599;PMS7003;48671;48.922;2.346;2023-04-05T01:41:28;187.75;186.00;158.75
62599;PMS7003;48671;48.922;2.346;2023-04-05T01:43:54;188.00;185.25;156.50
62599;PMS7003;48671;48.922;2.346;2023-04-05T01:46:20;204.00;201.25;164.25
62599;PMS7003;48671;48.922;2.346;2023-04-05T01:48:45;199.25;197.50;164.50
62599;PMS7003;48671;48.922;2.346;2023-04-05T01:51:10;191.25;191.25;159.25
62599;PMS7003;48671;48.922;2.346;2023-04-05T01:53:36;195.75;194.25;161.00
62599;PMS7003;48671;48.922;2.346;2023-04-05T01:56:01;195.25;190.50;162.00
62599;PMS7003;48671;48.922;2.346;2023-04-05T01:58:27;201.00;197.25;164.75
62599;PMS7003;48671;48.922;2.346;2023-04-05T02:00:53;192.00;187.75;158.25
62599;PMS7003;48671;48.922;2.346;2023-04-05T02:03:19;195.25;193.25;161.25
62599;PMS7003;48671;48.922;2.346;2023-04-05T02:05:45;198.25;195.25;165.25
62599;PMS7003;48671;48.922;2.346;2023-04-05T02:08:10;180.25;176.00;149.50
62599;PMS7003;48671;48.922;2.346;2023-04-05T02:10:37;187.00;183.75;156.75
62599;PMS7003;48671;48.922;2.346;2023-04-05T02:13:02;188.75;188.75;160.75
62599;PMS7003;48671;48.922;2.346;2023-04-05T02:15:27;170.75;169.75;145.50
62599;PMS7003;48671;48.922;2.346;2023-04-05T02:17:53;174.50;173.25;150.25
62599;PMS7003;48671;48.922;2.346;2023-04-05T02:20:19;178.50;175.00;150.75
62599;PMS7003;48671;48.922;2.346;2023-04-05T02:22:44;179.50;176.75;150.50
62599;PMS7003;48671;48.922;2.346;2023-04-05T02:25:10;182.75;181.50;156.75
62599;PMS7003;48671;48.922;2.346;2023-04-05T02:27:36;176.25;174.00;150.50
62599;PMS7003;48671;48.922;2.346;2023-04-05T02:30:01;186.50;183.25;156.00
62599;PMS7003;48671;48.922;2.346;2023-04-05T02:32:27;189.00;183.75;159.75
62599;PMS7003;48671;48.922;2.346;2023-04-05T02:34:52;171.25;167.50;147.50
62599;PMS7003;48671;48.922;2.346;2023-04-05T02:37:18;177.25;173.75;150.25
62599;PMS7003;48671;48.922;2.346;2023-04-05T02:39:44;171.50;169.50;145.50
62599;PMS7003;48671;48.922;2.346;2023-04-05T02:42:09;175.50;171.50;146.75
62599;PMS7003;48671;48.922;2.346;2023-04-05T02:44:34;172.00;169.00;147.50
62599;PMS7003;48671;48.922;2.346;2023-04-05T02:47:00;178.25;174.50;150.50
62599;PMS7003;48671;48.922;2.346;2023-04-05T02:49:26;173.50;170.25;147.75
62599;PMS7003;48671;48.922;2.346;2023-04-05T02:51:51;165.75;160.25;138.25
62599;PMS7003;48671;48.922;2.346;2023-04-05T02:54:16;172.75;166.50;144.75
62599;PMS7003;48671;48.922;2.346;2023-04-05T02:56:42;162.50;154.75;138.00
62599;PMS7003;48671;48.922;2.346;2023-04-05T02:59:07;170.50;165.50;143.75
62599;PMS7003;48671;48.922;2.346;2023-04-05T03:01:32;166.50;159.25;140.25
62599;PMS7003;48671;48.922;2.346;2023-04-05T03:04:00;176.00;166.00;143.25
62599;PMS7003;48671;48.922;2.346;2023-04-05T03:06:26;181.50;172.75;152.50
62599;PMS7003;48671;48.922;2.346;2023-04-05T03:08:51;168.25;157.50;140.75
62599;PMS7003;48671;48.922;2.346;2023-04-05T03:11:17;171.75;170.00;148.25
62599;PMS7003;48671;48.922;2.346;2023-04-05T03:13:43;175.00;168.75;147.25
62599;PMS7003;48671;48.922;2.346;2023-04-05T03:16:08;176.00;168.00;146.00
62599;PMS7003;48671;48.922;2.346;2023-04-05T03:18:34;174.00;168.33;145.00
62599;PMS7003;48671;48.922;2.346;2023-04-05T03:20:59;163.00;153.50;136.75
62599;PMS7003;48671;48.922;2.346;2023-04-05T03:23:25;182.25;172.00;149.00
62599;PMS7003;48671;48.922;2.346;2023-04-05T03:28:22;171.50;165.00;145.00
62599;PMS7003;48671;48.922;2.346;2023-04-05T03:30:49;186.25;174.25;154.50
62599;PMS7003;48671;48.922;2.346;2023-04-05T03:33:14;168.75;158.75;140.75
62599;PMS7003;48671;48.922;2.346;2023-04-05T03:35:40;175.00;167.25;145.75
62599;PMS7003;48671;48.922;2.346;2023-04-05T03:38:05;167.25;161.50;138.50
62599;PMS7003;48671;48.922;2.346;2023-04-05T03:40:31;184.25;163.75;146.75
62599;PMS7003;48671;48.922;2.346;2023-04-05T03:42:57;183.25;173.75;150.50
62599;PMS7003;48671;48.922;2.346;2023-04-05T03:45:22;173.00;162.25;144.50
62599;PMS7003;48671;48.922;2.346;2023-04-05T03:47:47;167.50;157.00;137.50
62599;PMS7003;48671;48.922;2.346;2023-04-05T03:50:13;167.25;157.50;140.50
62599;PMS7003;48671;48.922;2.346;2023-04-05T03:52:38;171.50;158.25;141.00
62599;PMS7003;48671;48.922;2.346;2023-04-05T03:55:04;163.00;152.75;135.75
62599;PMS7003;48671;48.922;2.346;2023-04-05T03:57:29;175.50;158.25;140.50
62599;PMS7003;48671;48.922;2.346;2023-04-05T03:59:55;164.00;148.75;134.25
62599;PMS7003;48671;48.922;2.346;2023-04-05T04:02:20;166.25;149.25;132.50
62599;PMS7003;48671;48.922;2.346;2023-04-05T04:04:46;160.00;147.25;131.25
62599;PMS7003;48671;48.922;2.346;2023-04-05T04:07:12;164.00;146.25;132.25
62599;PMS7003;48671;48.922;2.346;2023-04-05T04:09:38;159.75;142.25;126.25
62599;PMS7003;48671;48.922;2.346;2023-04-05T04:12:03;155.25;142.00;125.25
62599;PMS7003;48671;48.922;2.346;2023-04-05T04:14:29;155.00;140.50;128.25
62599;PMS7003;48671;48.922;2.346;2023-04-05T04:16:54;147.75;133.25;120.50
62599;PMS7003;48671;48.922;2.346;2023-04-05T04:19:19;155.25;137.25;121.50
62599;PMS7003;48671;48.922;2.346;2023-04-05T04:21:45;140.50;124.00;113.25
62599;PMS7003;48671;48.922;2.346;2023-04-05T04:24:15;151.00;133.50;121.25
62599;PMS7003;48671;48.922;2.346;2023-04-05T04:26:44;145.75;129.75;117.25
62599;PMS7003;48671;48.922;2.346;2023-04-05T04:29:10;145.75;127.00;116.50
62599;PMS7003;48671;48.922;2.346;2023-04-05T04:31:37;145.25;128.75;116.50
62599;PMS7003;48671;48.922;2.346;2023-04-05T04:34:03;143.25;126.75;114.50
62599;PMS7003;48671;48.922;2.346;2023-04-05T04:36:29;139.50;120.00;108.75
62599;PMS7003;48671;48.922;2.346;2023-04-05T04:39:03;139.50;122.50;111.50
62599;PMS7003;48671;48.922;2.346;2023-04-05T04:41:29;150.50;130.25;117.75
62599;PMS7003;48671;48.922;2.346;2023-04-05T04:43:57;136.75;117.00;106.00
62599;PMS7003;48671;48.922;2.346;2023-04-05T04:46:26;146.00;130.00;116.25
62599;PMS7003;48671;48.922;2.346;2023-04-05T04:48:58;136.00;114.67;105.33
62599;PMS7003;48671;48.922;2.346;2023-04-05T04:51:25;137.80;120.20;108.60
62599;PMS7003;48671;48.922;2.346;2023-04-05T04:53:50;126.00;110.00;101.75
62599;PMS7003;48671;48.922;2.346;2023-04-05T04:56:15;133.00;113.75;105.00
62599;PMS7003;48671;48.922;2.346;2023-04-05T04:58:41;128.00;112.25;100.00
62599;PMS7003;48671;48.922;2.346;2023-04-05T05:01:09;135.25;117.75;110.25
62599;PMS7003;48671;48.922;2.346;2023-04-05T05:03:34;134.75;117.50;107.75
62599;PMS7003;48671;48.922;2.346;2023-04-05T05:06:03;131.25;114.00;102.50
62599;PMS7003;48671;48.922;2.346;2023-04-05T05:08:29;132.00;113.67;103.33
62599;PMS7003;48671;48.922;2.346;2023-04-05T05:10:54;133.00;115.75;106.75
62599;PMS7003;48671;48.922;2.346;2023-04-05T05:13:20;133.75;119.75;108.50
62599;PMS7003;48671;48.922;2.346;2023-04-05T05:15:46;151.50;131.00;118.25
62599;PMS7003;48671;48.922;2.346;2023-04-05T05:18:12;133.50;117.00;109.25
62599;PMS7003;48671;48.922;2.346;2023-04-05T05:20:37;132.00;114.25;106.50
62599;PMS7003;48671;48.922;2.346;2023-04-05T05:23:02;138.00;117.50;106.25
62599;PMS7003;48671;48.922;2.346;2023-04-05T05:25:29;138.00;116.33;105.33
62599;PMS7003;48671;48.922;2.346;2023-04-05T05:27:54;128.25;110.00;101.25
62599;PMS7003;48671;48.922;2.346;2023-04-05T05:30:20;135.25;115.25;104.75
62599;PMS7003;48671;48.922;2.346;2023-04-05T05:32:45;133.25;113.25;105.75
62599;PMS7003;48671;48.922;2.346;2023-04-05T05:35:11;132.25;111.50;104.50
62599;PMS7003;48671;48.922;2.346;2023-04-05T05:37:36;138.75;119.00;110.50
62599;PMS7003;48671;48.922;2.346;2023-04-05T05:40:02;141.33;119.33;109.33
62599;PMS7003;48671;48.922;2.346;2023-04-05T05:42:29;148.00;127.00;114.00
62599;PMS7003;48671;48.922;2.346;2023-04-05T05:44:56;131.25;112.25;103.50
62599;PMS7003;48671;48.922;2.346;2023-04-05T05:47:22;136.50;121.75;110.00
62599;PMS7003;48671;48.922;2.346;2023-04-05T05:49:47;135.00;120.25;108.00
62599;PMS7003;48671;48.922;2.346;2023-04-05T05:52:13;127.00;110.00;101.50
62599;PMS7003;48671;48.922;2.346;2023-04-05T05:54:39;129.33;110.67;103.33
62599;PMS7003;48671;48.922;2.346;2023-04-05T05:57:04;133.00;114.33;102.33
62599;PMS7003;48671;48.922;2.346;2023-04-05T05:59:30;136.00;117.00;106.67
62599;PMS7003;48671;48.922;2.346;2023-04-05T06:01:55;131.00;114.25;104.00
62599;PMS7003;48671;48.922;2.346;2023-04-05T06:04:20;138.75;120.25;109.00
62599;PMS7003;48671;48.922;2.346;2023-04-05T06:06:46;142.50;121.75;111.25
62599;PMS7003;48671;48.922;2.346;2023-04-05T06:09:12;160.25;140.75;127.50
62599;PMS7003;48671;48.922;2.346;2023-04-05T06:11:37;424.25;352.25;204.25
62599;PMS7003;48671;48.922;2.346;2023-04-05T06:14:03;435.67;369.00;202.00
62599;PMS7003;48671;48.922;2.346;2023-04-05T06:16:28;137.75;122.75;110.00
62599;PMS7003;48671;48.922;2.346;2023-04-05T06:18:54;147.50;128.25;114.75
62599;PMS7003;48671;48.922;2.346;2023-04-05T06:21:21;151.75;130.75;115.00
62599;PMS7003;48671;48.922;2.346;2023-04-05T06:23:46;235.25;221.25;191.75
62599;PMS7003;48671;48.922;2.346;2023-04-05T06:26:17;137.00;119.50;105.75
62599;PMS7003;48671;48.922;2.346;2023-04-05T06:28:44;193.50;171.50;155.50
62599;PMS7003;48671;48.922;2.346;2023-04-05T06:31:11;162.00;136.00;126.25
62599;PMS7003;48671;48.922;2.346;2023-04-05T06:33:37;203.50;191.00;170.25
62599;PMS7003;48671;48.922;2.346;2023-04-05T06:36:03;152.25;132.00;120.00
62599;PMS7003;48671;48.922;2.346;2023-04-05T06:38:28;132.33;113.33;101.67
62599;PMS7003;48671;48.922;2.346;2023-04-05T06:40:53;146.50;126.00;115.75
62599;PMS7003;48671;48.922;2.346;2023-04-05T06:43:19;143.50;125.25;111.50
62599;PMS7003;48671;48.922;2.346;2023-04-05T06:45:44;150.00;133.00;119.00
62599;PMS7003;48671;48.922;2.346;2023-04-05T06:48:09;201.50;180.25;161.00
62599;PMS7003;48671;48.922;2.346;2023-04-05T06:50:35;154.75;136.00;119.75
62599;PMS7003;48671;48.922;2.346;2023-04-05T06:53:01;141.67;123.67;110.67
62599;PMS7003;48671;48.922;2.346;2023-04-05T06:55:27;150.00;131.50;118.25
62599;PMS7003;48671;48.922;2.346;2023-04-05T06:57:53;152.25;133.75;118.50
62599;PMS7003;48671;48.922;2.346;2023-04-05T07:00:19;165.75;145.75;124.75
62599;PMS7003;48671;48.922;2.346;2023-04-05T07:02:44;158.00;140.00;124.00
62599;PMS7003;48671;48.922;2.346;2023-04-05T07:07:45;158.00;149.75;126.75
62599;PMS7003;48671;48.922;2.346;2023-04-05T07:10:12;185.25;177.00;149.00
62599;PMS7003;48671;48.922;2.346;2023-04-05T07:12:38;168.00;155.50;135.50
62599;PMS7003;48671;48.922;2.346;2023-04-05T07:15:03;170.25;155.75;131.75
62599;PMS7003;48671;48.922;2.346;2023-04-05T07:17:30;176.67;168.00;137.00
62599;PMS7003;48671;48.922;2.346;2023-04-05T07:19:55;164.00;152.50;133.25
62599;PMS7003;48671;48.922;2.346;2023-04-05T07:22:21;165.50;163.00;136.50
62599;PMS7003;48671;48.922;2.346;2023-04-05T07:24:46;179.50;171.00;140.50
62599;PMS7003;48671;48.922;2.346;2023-04-05T07:27:12;207.75;195.75;159.00
62599;PMS7003;48671;48.922;2.346;2023-04-05T07:29:38;179.75;175.75;142.25
62599;PMS7003;48671;48.922;2.346;2023-04-05T07:32:06;177.00;171.50;137.50
62599;PMS7003;48671;48.922;2.346;2023-04-05T07:34:35;185.75;181.75;144.75
62599;PMS7003;48671;48.922;2.346;2023-04-05T07:37:00;196.00;188.75;152.00
62599;PMS7003;48671;48.922;2.346;2023-04-05T07:39:26;189.75;186.00;148.25
62599;PMS7003;48671;48.922;2.346;2023-04-05T07:41:52;184.00;179.50;143.75
62599;PMS7003;48671;48.922;2.346;2023-04-05T07:44:17;241.50;232.00;180.00
62599;PMS7003;48671;48.922;2.346;2023-04-05T07:46:42;200.50;198.00;154.25
62599;PMS7003;48671;48.922;2.346;2023-04-05T07:49:09;222.00;211.00;159.75
62599;PMS7003;48671;48.922;2.346;2023-04-05T07:51:35;242.25;238.00;176.00
62599;PMS7003;48671;48.922;2.346;2023-04-05T07:54:02;240.50;237.50;176.00
62599;PMS7003;48671;48.922;2.346;2023-04-05T07:56:29;243.50;238.50;180.25
62599;PMS7003;48671;48.922;2.346;2023-04-05T07:58:55;256.00;255.00;176.50
62599;PMS7003;48671;48.922;2.346;2023-04-05T08:01:21;251.50;247.75;177.75
62599;PMS7003;48671;48.922;2.346;2023-04-05T08:03:51;309.75;302.25;212.00
62599;PMS7003;48671;48.922;2.346;2023-04-05T08:06:16;55.25;47.50;28.50
62599;PMS7003;48671;48.922;2.346;2023-04-05T08:08:42;0.00;0.00;0.00
62599;PMS7003;48671;48.922;2.346;2023-04-05T08:11:08;0.00;0.00;0.00
62599;PMS7003;48671;48.922;2.346;2023-04-05T08:13:34;0.00;0.00;0.00
62599;PMS7003;48671;48.922;2.346;2023-04-05T08:16:00;0.00;0.00;0.00
62599;PMS7003;48671;48.922;2.346;2023-04-05T08:18:26;0.00;0.00;0.00
62599;PMS7003;48671;48.922;2.346;2023-04-05T08:20:52;0.00;0.00;0.00
62599;PMS7003;48671;48.922;2.346;2023-04-05T08:23:18;0.00;0.00;0.00
62599;PMS7003;48671;48.922;2.346;2023-04-05T08:25:43;0.00;0.00;0.00
62599;PMS7003;48671;48.922;2.346;2023-04-05T08:28:09;0.00;0.00;0.00
62599;PMS7003;48671;48.922;2.346;2023-04-05T08:30:35;0.00;0.00;0.00
62599;PMS7003;48671;48.922;2.346;2023-04-05T08:33:00;0.00;0.00;0.00
62599;PMS7003;48671;48.922;2.346;2023-04-05T08:35:26;0.00;0.00;0.00
62599;PMS7003;48671;48.922;2.346;2023-04-05T08:37:51;0.00;0.00;0.00
62599;PMS7003;48671;48.922;2.346;2023-04-05T08:40:17;0.00;0.00;0.00
62599;PMS7003;48671;48.922;2.346;2023-04-05T08:42:46;0.00;0.00;0.00
62599;PMS7003;48671;48.922;2.346;2023-04-05T08:45:21;0.00;0.00;0.00
62599;PMS7003;48671;48.922;2.346;2023-04-05T08:47:49;0.00;0.00;0.00
62599;PMS7003;48671;48.922;2.346;2023-04-05T08:50:18;0.00;0.00;0.00
62599;PMS7003;48671;48.922;2.346;2023-04-05T08:52:44;0.00;0.00;0.00
62599;PMS7003;48671;48.922;2.346;2023-04-05T08:55:13;1.25;1.25;0.75
62599;PMS7003;48671;48.922;2.346;2023-04-05T08:57:39;0.50;0.50;0.25
62599;PMS7003;48671;48.922;2.346;2023-04-05T09:00:08;6.00;6.00;4.00
62599;PMS7003;48671;48.922;2.346;2023-04-05T09:02:35;12.75;12.00;9.00
62599;PMS7003;48671;48.922;2.346;2023-04-05T09:05:01;23.50;21.25;16.00
62599;PMS7003;48671;48.922;2.346;2023-04-05T09:07:32;41.00;36.00;27.50
62599;PMS7003;48671;48.922;2.346;2023-04-05T09:09:57;47.25;41.25;30.00
62599;PMS7003;48671;48.922;2.346;2023-04-05T09:12:24;13.50;13.50;10.00
62599;PMS7003;48671;48.922;2.346;2023-04-05T09:14:50;90.25;83.75;63.00
62599;PMS7003;48671;48.922;2.346;2023-04-05T09:17:16;43.25;36.75;27.50
62599;PMS7003;48671;48.922;2.346;2023-04-05T09:19:45;4.50;4.50;2.75
62599;PMS7003;48671;48.922;2.346;2023-04-05T09:22:14;88.75;81.50;65.00
62599;PMS7003;48671;48.922;2.346;2023-04-05T09:24:42;101.00;96.25;75.00
62599;PMS7003;48671;48.922;2.346;2023-04-05T09:27:17;140.50;137.00;112.00
62599;PMS7003;48671;48.922;2.346;2023-04-05T09:29:44;104.25;99.00;82.00
62599;PMS7003;48671;48.922;2.346;2023-04-05T09:32:14;77.50;68.75;52.25
62599;PMS7003;48671;48.922;2.346;2023-04-05T09:34:41;25.75;23.75;18.00
62599;PMS7003;48671;48.922;2.346;2023-04-05T09:37:11;75.50;68.75;51.75
62599;PMS7003;48671;48.922;2.346;2023-04-05T09:39:41;59.25;50.75;39.00
62599;PMS7003;48671;48.922;2.346;2023-04-05T09:42:08;85.25;79.00;59.75
62599;PMS7003;48671;48.922;2.346;2023-04-05T09:44:48;9.00;9.00;9.00
62599;PMS7003;48671;48.922;2.346;2023-04-05T09:47:29;76.50;69.75;51.00
62599;PMS7003;48671;48.922;2.346;2023-04-05T09:49:57;31.25;28.25;20.75
62599;PMS7003;48671;48.922;2.346;2023-04-05T09:52:23;67.00;61.75;48.25
62599;PMS7003;48671;48.922;2.346;2023-04-05T09:54:54;43.50;38.00;29.50
62599;PMS7003;48671;48.922;2.346;2023-04-05T09:57:24;49.50;44.75;34.25
62599;PMS7003;48671;48.922;2.346;2023-04-05T09:59:51;34.00;30.25;23.00
62599;PMS7003;48671;48.922;2.346;2023-04-05T10:02:17;21.25;19.25;14.75
62599;PMS7003;48671;48.922;2.346;2023-04-05T10:04:45;62.75;56.00;41.50
62599;PMS7003;48671;48.922;2.346;2023-04-05T10:07:12;42.25;37.25;27.75
62599;PMS7003;48671;48.922;2.346;2023-04-05T10:09:39;35.25;30.50;24.75
62599;PMS7003;48671;48.922;2.346;2023-04-05T10:12:06;47.75;42.25;32.00
62599;PMS7003;48671;48.922;2.346;2023-04-05T10:14:36;22.75;20.25;15.25
62599;PMS7003;48671;48.922;2.346;2023-04-05T10:17:15;30.00;26.75;20.50
62599;PMS7003;48671;48.922;2.346;2023-04-05T10:25:26;0.50;0.50;0.25
62599;PMS7003;48671;48.922;2.346;2023-04-05T10:27:58;21.00;20.25;15.25
62599;PMS7003;48671;48.922;2.346;2023-04-05T10:30:31;0.75;0.75;0.50
62599;PMS7003;48671;48.922;2.346;2023-04-05T10:33:05;1.25;1.25;0.75
62599;PMS7003;48671;48.922;2.346;2023-04-05T10:38:20;1.25;1.25;0.75
62599;PMS7003;48671;48.922;2.346;2023-04-05T10:40:48;0.00;0.00;0.00
62599;PMS7003;48671;48.922;2.346;2023-04-05T10:43:19;2.00;2.00;1.75
62599;PMS7003;48671;48.922;2.346;2023-04-05T10:45:47;4.00;4.00;3.00
62599;PMS7003;48671;48.922;2.346;2023-04-05T10:51:23;0.00;0.00;0.00
62599;PMS7003;48671;48.922;2.346;2023-04-05T10:53:50;0.00;0.00;0.00
62599;PMS7003;48671;48.922;2.346;2023-04-05T10:56:17;0.00;0.00;0.00
62599;PMS7003;48671;48.922;2.346;2023-04-05T10:58:43;0.40;0.40;0.20
62599;PMS7003;48671;48.922;2.346;2023-04-05T11:01:10;1.00;1.00;0.00
62599;PMS7003;48671;48.922;2.346;2023-04-05T11:11:44;0.00;0.00;0.00
62599;PMS7003;48671;48.922;2.346;2023-04-05T11:14:16;0.00;0.00;0.00
62599;PMS7003;48671;48.922;2.346;2023-04-05T11:16:53;0.00;0.00;0.00
62599;PMS7003;48671;48.922;2.346;2023-04-05T11:22:07;0.00;0.00;0.00
62599;PMS7003;48671;48.922;2.346;2023-04-05T11:24:49;0.00;0.00;0.00
62599;PMS7003;48671;48.922;2.346;2023-04-05T11:27:30;0.00;0.00;0.00
62599;PMS7003;48671;48.922;2.346;2023-04-05T11:29:57;0.00;0.00;0.00
62599;PMS7003;48671;48.922;2.346;2023-04-05T11:32:37;0.00;0.00;0.00
62599;PMS7003;48671;48.922;2.346;2023-04-05T11:35:15;0.00;0.00;0.00
62599;PMS7003;48671;48.922;2.346;2023-04-05T11:40:25;0.00;0.00;0.00
62599;PMS7003;48671;48.922;2.346;2023-04-05T11:42:58;0.00;0.00;0.00
62599;PMS7003;48671;48.922;2.346;2023-04-05T11:45:28;0.00;0.00;0.00
62599;PMS7003;48671;48.922;2.346;2023-04-05T11:47:54;0.00;0.00;0.00
62599;PMS7003;48671;48.922;2.346;2023-04-05T11:50:19;0.00;0.00;0.00
62599;PMS7003;48671;48.922;2.346;2023-04-05T11:52:45;0.00;0.00;0.00
62599;PMS7003;48671;48.922;2.346;2023-04-05T11:55:30;0.00;0.00;0.00
62599;PMS7003;48671;48.922;2.346;2023-04-05T11:57:55;0.00;0.00;0.00
62599;PMS7003;48671;48.922;2.346;2023-04-05T12:00:21;8.25;8.25;5.50
62599;PMS7003;48671;48.922;2.346;2023-04-05T12:02:46;18.75;18.25;11.75
62599;PMS7003;48671;48.922;2.346;2023-04-05T12:05:12;0.00;0.00;0.00
62599;PMS7003;48671;48.922;2.346;2023-04-05T12:07:37;15.50;15.50;8.50
62599;PMS7003;48671;48.922;2.346;2023-04-05T12:10:04;0.00;0.00;0.00
62599;PMS7003;48671;48.922;2.346;2023-04-05T12:12:39;0.50;0.50;0.25
62599;PMS7003;48671;48.922;2.346;2023-04-05T12:15:06;79.25;75.25;50.50
62599;PMS7003;48671;48.922;2.346;2023-04-05T12:17:39;0.00;0.00;0.00
62599;PMS7003;48671;48.922;2.346;2023-04-05T12:20:06;0.00;0.00;0.00
62599;PMS7003;48671;48.922;2.346;2023-04-05T12:22:33;2.50;2.50;1.50
62599;PMS7003;48671;48.922;2.346;2023-04-05T12:24:59;0.00;0.00;0.00
62599;PMS7003;48671;48.922;2.346;2023-04-05T12:27:24;0.00;0.00;0.00
62599;PMS7003;48671;48.922;2.346;2023-04-05T12:30:09;0.00;0.00;0.00
62599;PMS7003;48671;48.922;2.346;2023-04-05T12:32:45;2.00;2.00;1.00
62599;PMS7003;48671;48.922;2.346;2023-04-05T12:35:12;0.00;0.00;0.00
62599;PMS7003;48671;48.922;2.346;2023-04-05T12:37:40;0.50;0.50;0.25
62599;PMS7003;48671;48.922;2.346;2023-04-05T12:40:05;0.00;0.00;0.00
62599;PMS7003;48671;48.922;2.346;2023-04-05T12:42:32;0.00;0.00;0.00
62599;PMS7003;48671;48.922;2.346;2023-04-05T12:45:05;0.00;0.00;0.00
62599;PMS7003;48671;48.922;2.346;2023-04-05T12:47:33;15.25;14.50;10.75
62599;PMS7003;48671;48.922;2.346;2023-04-05T12:50:09;77.33;71.33;47.67
62599;PMS7003;48671;48.922;2.346;2023-04-05T12:52:50;7.75;7.75;5.75
62599;PMS7003;48671;48.922;2.346;2023-04-05T12:55:28;0.00;0.00;0.00
62599;PMS7003;48671;48.922;2.346;2023-04-05T12:57:58;0.00;0.00;0.00
62599;PMS7003;48671;48.922;2.346;2023-04-05T13:00:25;0.00;0.00;0.00
62599;PMS7003;48671;48.922;2.346;2023-04-05T13:02:53;0.00;0.00;0.00
62599;PMS7003;48671;48.922;2.346;2023-04-05T13:05:20;0.00;0.00;0.00
62599;PMS7003;48671;48.922;2.346;2023-04-05T13:07:52;0.00;0.00;0.00
62599;PMS7003;48671;48.922;2.346;2023-04-05T13:10:19;0.00;0.00;0.00
62599;PMS7003;48671;48.922;2.346;2023-04-05T13:12:46;0.00;0.00;0.00
62599;PMS7003;48671;48.922;2.346;2023-04-05T13:15:12;0.00;0.00;0.00
62599;PMS7003;48671;48.922;2.346;2023-04-05T13:17:38;0.00;0.00;0.00
62599;PMS7003;48671;48.922;2.346;2023-04-05T13:20:04;0.00;0.00;0.00
62599;PMS7003;48671;48.922;2.346;2023-04-05T13:22:31;0.00;0.00;0.00
62599;PMS7003;48671;48.922;2.346;2023-04-05T13:24:56;0.00;0.00;0.00
62599;PMS7003;48671;48.922;2.346;2023-04-05T13:27:22;0.00;0.00;0.00
62599;PMS7003;48671;48.922;2.346;2023-04-05T13:29:47;0.00;0.00;0.00
62599;PMS7003;48671;48.922;2.346;2023-04-05T13:32:12;0.00;0.00;0.00
62599;PMS7003;48671;48.922;2.346;2023-04-05T13:34:38;0.00;0.00;0.00
62599;PMS7003;48671;48.922;2.346;2023-04-05T13:37:03;0.00;0.00;0.00
62599;PMS7003;48671;48.922;2.346;2023-04-05T13:39:28;0.00;0.00;0.00
62599;PMS7003;48671;48.922;2.346;2023-04-05T13:41:54;0.00;0.00;0.00
62599;PMS7003;48671;48.922;2.346;2023-04-05T13:44:21;0.00;0.00;0.00
62599;PMS7003;48671;48.922;2.346;2023-04-05T13:46:46;0.00;0.00;0.00
62599;PMS7003;48671;48.922;2.346;2023-04-05T13:49:12;0.00;0.00;0.00
62599;PMS7003;48671;48.922;2.346;2023-04-05T13:51:37;8.00;8.00;4.00
62599;PMS7003;48671;48.922;2.346;2023-04-05T13:54:08;0.00;0.00;0.00
62599;PMS7003;48671;48.922;2.346;2023-04-05T13:56:36;0.00;0.00;0.00
62599;PMS7003;48671;48.922;2.346;2023-04-05T13:59:01;0.00;0.00;0.00
62599;PMS7003;48671;48.922;2.346;2023-04-05T14:01:27;0.00;0.00;0.00
62599;PMS7003;48671;48.922;2.346;2023-04-05T14:03:52;0.50;0.50;0.25
62599;PMS7003;48671;48.922;2.346;2023-04-05T14:06:18;0.50;0.50;0.25
62599;PMS7003;48671;48.922;2.346;2023-04-05T14:08:43;0.00;0.00;0.00
62599;PMS7003;48671;48.922;2.346;2023-04-05T14:11:08;0.00;0.00;0.00
62599;PMS7003;48671;48.922;2.346;2023-04-05T14:13:34;0.00;0.00;0.00
62599;PMS7003;48671;48.922;2.346;2023-04-05T14:15:59;0.00;0.00;0.00
62599;PMS7003;48671;48.922;2.346;2023-04-05T14:18:25;12.75;12.25;9.00